La Barge, Wyoming
Current Conditions -  °F | °C
As of 1:53 PM on Thursday 18 Dec 2014 (Local Time) from KBPI Reporting Station
Broken Clouds Broken Clouds  
Wind Chill: 32°   Ceiling: 4800
Heat Index: 32°   Visibility: 10mi
Dew Point: 14°   Wind: 3mph
Humidity: 47%   Direction: 290°WNW
Pressure: 30.06"   Gusts: NA
Location:  42.26°N, 110.19°W
Report Text: KBPI 182053Z AUTO 29003KT 10SM BKN048 00/M10 A3006 RMK AO2 SLP209 T00001100 56013
Loading
Personal Weather Stations






























Interactive Weather Map New forecast layout! Learn more

10-Day Weather Forecast

Advertisements
Track Severe Weather on mobile